Time;durP1;ratioP1;P1;durP2;ratioP2;P2;SDS_P1;SDS_P2;PMS_P1;PMS_P2;Temp;Humidity;BMP_temperature;BMP_pressure;BME280_temperature;BME280_humidity;BME280_pressure;Samples;Min_cycle;Max_cycle;Signal;HPM_P1;HPM_P2
2021/12/25 00:02:08;;;;;;;;;;;5.10;99.90;;;;;;4959969;28;19919;-79
2021/12/25 00:04:34;;;;;;;;;;;5.00;99.90;;;;;;4951226;29;19926;-80
2021/12/25 00:07:00;;;;;;;;;;;5.00;99.90;;;;;;4949414;28;20444;-80
2021/12/25 00:09:25;;;;;;;;;;;4.90;99.90;;;;;;4952703;28;19919;-80
2021/12/25 00:11:52;;;;;;;;;;;4.90;99.90;;;;;;4939078;28;20381;-80
2021/12/25 00:14:17;;;;;;;;;;;4.80;99.90;;;;;;4966734;28;19918;-80
2021/12/25 00:16:43;;;;;;;;;;;4.90;99.90;;;;;;4954044;28;19919;-81
2021/12/25 00:19:09;;;;;;;;;;;4.90;99.90;;;;;;4945177;28;19918;-81
2021/12/25 00:21:34;;;;;;;;;;;4.80;99.90;;;;;;4956971;28;19922;-79
2021/12/25 00:24:00;;;;;;;;;;;4.80;99.90;;;;;;4939529;28;20006;-80
2021/12/25 00:34:38;;;;;;;;;;;4.80;99.90;;;;;;4975469;28;19918;-80
2021/12/25 00:37:04;;;;;;;;;;;4.80;99.90;;;;;;4956787;28;19942;-80
2021/12/25 00:39:30;;;;;;;;;;;4.80;99.90;;;;;;4971963;28;19918;-80
2021/12/25 00:41:56;;;;;;;;;;;4.80;99.90;;;;;;4953398;29;19921;-81
2021/12/25 00:44:22;;;;;;;;;;;4.80;99.90;;;;;;4936728;29;19919;-82
2021/12/25 00:46:48;;;;;;;;;;;4.80;99.90;;;;;;4933366;29;20297;-81
2021/12/25 00:49:13;;;;;;;;;;;4.80;99.90;;;;;;4949715;29;19919;-80
2021/12/25 00:51:40;;;;;;;;;;;4.80;99.90;;;;;;4933849;28;19986;-81
2021/12/25 00:54:06;;;;;;;;;;;4.90;99.90;;;;;;4936694;28;20366;-82
2021/12/25 00:56:31;;;;;;;;;;;4.90;99.90;;;;;;4936963;29;19919;-81
2021/12/25 00:58:57;;;;;;;;;;;4.90;99.90;;;;;;4954072;28;20277;-80
2021/12/25 01:01:23;;;;;;;;;;;4.90;99.90;;;;;;4988297;28;19964;-81
2021/12/25 01:03:48;;;;;;;;;;;4.90;99.90;;;;;;4952672;28;19926;-80
2021/12/25 01:06:15;;;;;;;;;;;4.90;99.90;;;;;;4933137;29;20436;-81
2021/12/25 01:08:41;;;;;;;;;;;4.90;99.90;;;;;;4917511;29;20030;-81
2021/12/25 01:11:07;;;;;;;;;;;4.90;99.90;;;;;;4918942;29;20009;-81
2021/12/25 01:13:38;;;;;;;;;;;4.90;99.90;;;;;;4952395;29;19982;-80
2021/12/25 01:30:09;;;;;;;;;;;4.90;99.90;;;;;;4926312;29;20398;-81
2021/12/25 01:47:47;;;;;;;;;;;4.80;99.90;;;;;;4972641;28;20707;-82
2021/12/25 01:50:13;;;;;;;;;;;4.80;99.90;;;;;;4949934;28;19918;-82
2021/12/25 01:52:39;;;;;;;;;;;4.80;99.90;;;;;;4969480;28;19926;-82
2021/12/25 01:55:07;;;;;;;;;;;4.90;99.90;;;;;;4952671;28;19918;-81
2021/12/25 01:57:33;;;;;;;;;;;5.00;99.90;;;;;;4948040;28;19915;-82
2021/12/25 01:59:59;;;;;;;;;;;4.90;99.90;;;;;;4936517;28;20427;-81
2021/12/25 02:02:26;;;;;;;;;;;4.80;99.90;;;;;;4954224;28;20554;-82
2021/12/25 02:04:51;;;;;;;;;;;4.70;99.90;;;;;;4977052;28;19914;-81
2021/12/25 02:07:18;;;;;;;;;;;4.60;99.90;;;;;;4948124;28;20373;-81
2021/12/25 02:09:44;;;;;;;;;;;4.40;99.90;;;;;;4917039;29;20296;-80
2021/12/25 02:12:11;;;;;;;;;;;4.40;99.90;;;;;;4958864;28;19969;-79
2021/12/25 02:14:38;;;;;;;;;;;4.30;99.90;;;;;;4964577;28;19926;-81
2021/12/25 02:17:16;;;;;;;;;;;4.20;99.90;;;;;;4933015;28;19919;-81
2021/12/25 02:19:53;;;;;;;;;;;4.10;99.90;;;;;;4934469;28;19970;-78
2021/12/25 02:22:19;;;;;;;;;;;4.00;99.90;;;;;;4964236;28;19980;-78
2021/12/25 02:24:45;;;;;;;;;;;3.80;99.90;;;;;;4949151;29;19965;-81
2021/12/25 02:27:11;;;;;;;;;;;3.80;99.90;;;;;;4939241;29;20289;-79
2021/12/25 02:29:37;;;;;;;;;;;3.70;99.90;;;;;;4968679;28;19918;-81
2021/12/25 02:32:04;;;;;;;;;;;3.70;99.90;;;;;;4950100;29;19922;-82
2021/12/25 02:34:33;;;;;;;;;;;3.60;99.90;;;;;;4951990;29;19922;-82
2021/12/25 02:36:59;;;;;;;;;;;3.60;99.90;;;;;;4968458;28;19914;-82
2021/12/25 02:39:25;;;;;;;;;;;3.60;99.90;;;;;;4953713;28;19948;-82
2021/12/25 02:41:50;;;;;;;;;;;3.50;99.90;;;;;;4936391;29;19914;-82
2021/12/25 02:44:16;;;;;;;;;;;3.50;99.90;;;;;;4952441;29;20352;-83
2021/12/25 02:46:47;;;;;;;;;;;3.50;99.90;;;;;;4952576;28;20385;-82
2021/12/25 02:49:13;;;;;;;;;;;3.40;99.90;;;;;;4951990;28;19914;-82
2021/12/25 02:51:43;;;;;;;;;;;3.40;99.90;;;;;;4952062;28;19922;-81
2021/12/25 02:54:09;;;;;;;;;;;3.40;99.90;;;;;;4955721;28;20016;-81
2021/12/25 02:56:35;;;;;;;;;;;3.40;99.90;;;;;;4954899;28;19981;-80
2021/12/25 02:59:00;;;;;;;;;;;3.30;99.90;;;;;;4971104;28;20288;-80
2021/12/25 03:01:26;;;;;;;;;;;3.30;99.90;;;;;;4951981;29;19991;-80
2021/12/25 03:03:52;;;;;;;;;;;3.30;99.90;;;;;;4936331;29;20416;-81
2021/12/25 03:06:18;;;;;;;;;;;3.20;99.90;;;;;;4952634;28;19962;-82
2021/12/25 03:08:44;;;;;;;;;;;3.20;99.90;;;;;;4954855;29;20592;-81
2021/12/25 03:11:13;;;;;;;;;;;3.10;99.90;;;;;;4954695;28;19937;-82
2021/12/25 03:13:56;;;;;;;;;;;3.10;99.90;;;;;;4959113;28;20312;-81
2021/12/25 03:16:22;;;;;;;;;;;3.00;99.90;;;;;;4973997;28;19926;-81
2021/12/25 03:18:52;;;;;;;;;;;3.00;99.90;;;;;;4973931;28;19920;-81
2021/12/25 03:21:18;;;;;;;;;;;2.90;99.90;;;;;;4985155;28;20270;-81
2021/12/25 03:23:45;;;;;;;;;;;2.90;99.90;;;;;;4946672;28;19925;-81
2021/12/25 03:26:11;;;;;;;;;;;2.80;99.90;;;;;;4971553;28;19997;-81
2021/12/25 03:28:41;;;;;;;;;;;2.80;99.90;;;;;;4970556;28;20009;-81
2021/12/25 03:31:15;;;;;;;;;;;2.80;99.90;;;;;;4964996;28;19950;-81
2021/12/25 03:33:41;;;;;;;;;;;2.80;99.90;;;;;;4990163;28;20281;-81
2021/12/25 03:36:07;;;;;;;;;;;2.70;99.90;;;;;;4982269;28;20053;-82
2021/12/25 03:38:32;;;;;;;;;;;2.70;99.90;;;;;;4954272;28;20384;-81
2021/12/25 03:41:00;;;;;;;;;;;2.60;99.90;;;;;;4938427;29;19987;-81
2021/12/25 03:43:26;;;;;;;;;;;2.60;99.90;;;;;;4954542;28;19915;-81
2021/12/25 03:45:52;;;;;;;;;;;2.60;99.90;;;;;;4951389;28;19923;-81
2021/12/25 03:58:48;;;;;;;;;;;2.40;99.90;;;;;;4950704;28;20025;-81
2021/12/25 04:02:19;;;;;;;;;;;2.40;99.90;;;;;;4950925;28;19982;-82
2021/12/25 04:04:16;;;;;;;;;;;2.30;99.90;;;;;;4942662;28;20021;-82
2021/12/25 04:06:54;;;;;;;;;;;2.30;99.90;;;;;;4948239;28;19919;-82
2021/12/25 04:09:25;;;;;;;;;;;2.30;99.90;;;;;;4969988;28;19915;-82
2021/12/25 04:12:03;;;;;;;;;;;2.30;99.90;;;;;;4953536;29;19974;-81
2021/12/25 04:14:31;;;;;;;;;;;2.20;99.90;;;;;;4969782;28;19925;-81
2021/12/25 04:16:57;;;;;;;;;;;2.20;99.90;;;;;;4969381;28;20414;-82
2021/12/25 04:19:23;;;;;;;;;;;2.20;99.90;;;;;;4963994;28;19915;-81
2021/12/25 04:21:55;;;;;;;;;;;2.20;99.90;;;;;;4934624;28;19957;-82
2021/12/25 04:24:22;;;;;;;;;;;2.20;99.90;;;;;;4934268;28;19919;-82
2021/12/25 04:26:49;;;;;;;;;;;2.20;99.90;;;;;;4937959;28;19958;-81
2021/12/25 05:04:59;;;;;;;;;;;2.00;99.90;;;;;;4942714;29;19991;-81
2021/12/25 05:07:49;;;;;;;;;;;2.00;99.90;;;;;;4950515;28;19941;-81
2021/12/25 05:10:15;;;;;;;;;;;2.00;99.90;;;;;;4959599;28;19914;-82
2021/12/25 05:12:41;;;;;;;;;;;2.00;99.90;;;;;;4949782;28;19918;-82
2021/12/25 05:15:07;;;;;;;;;;;1.90;99.90;;;;;;4979152;28;19977;-82
2021/12/25 05:17:33;;;;;;;;;;;1.90;99.90;;;;;;4929006;28;19910;-81
2021/12/25 05:19:59;;;;;;;;;;;1.90;99.90;;;;;;4976387;28;19962;-83
2021/12/25 05:22:26;;;;;;;;;;;1.90;99.90;;;;;;4958847;28;19941;-83
2021/12/25 05:24:52;;;;;;;;;;;1.90;99.90;;;;;;4973430;28;19964;-82
2021/12/25 05:27:18;;;;;;;;;;;1.90;99.90;;;;;;4963954;28;19926;-82
2021/12/25 05:29:46;;;;;;;;;;;1.90;99.90;;;;;;4937078;28;19965;-82
2021/12/25 05:32:13;;;;;;;;;;;1.90;99.90;;;;;;4960455;28;20017;-82
2021/12/25 05:34:58;;;;;;;;;;;1.90;99.90;;;;;;4942435;28;20038;-83
2021/12/25 05:37:44;;;;;;;;;;;1.90;99.90;;;;;;4969835;28;20377;-83
2021/12/25 05:40:24;;;;;;;;;;;1.90;99.90;;;;;;4962007;28;19921;-83
2021/12/25 05:42:51;;;;;;;;;;;1.80;99.90;;;;;;4972226;28;19922;-81
2021/12/25 05:45:19;;;;;;;;;;;1.80;99.90;;;;;;4959098;28;19914;-80
2021/12/25 05:48:05;;;;;;;;;;;1.70;99.90;;;;;;4964760;28;20005;-81
2021/12/25 05:50:58;;;;;;;;;;;1.70;99.90;;;;;;4936966;29;20005;-82
2021/12/25 05:53:42;;;;;;;;;;;1.70;99.90;;;;;;4950718;29;20058;-82
2021/12/25 05:56:26;;;;;;;;;;;1.70;99.90;;;;;;4937202;29;19971;-81
2021/12/25 05:59:15;;;;;;;;;;;1.70;99.90;;;;;;4955296;28;19941;-83
2021/12/25 06:02:06;;;;;;;;;;;1.70;99.90;;;;;;4970100;28;19918;-82
2021/12/25 06:04:34;;;;;;;;;;;1.70;99.90;;;;;;4952038;28;19925;-82
2021/12/25 06:07:01;;;;;;;;;;;1.60;99.90;;;;;;4967616;28;19918;-82
2021/12/25 06:09:27;;;;;;;;;;;1.60;99.90;;;;;;4976185;28;20288;-81
2021/12/25 06:11:52;;;;;;;;;;;1.60;99.90;;;;;;4971470;28;20001;-83
2021/12/25 06:14:20;;;;;;;;;;;1.60;99.90;;;;;;4949319;29;19925;-82
2021/12/25 06:17:01;;;;;;;;;;;1.50;99.90;;;;;;4959042;28;20294;-84
2021/12/25 06:19:34;;;;;;;;;;;1.50;99.90;;;;;;4957329;28;19941;-82
2021/12/25 06:22:18;;;;;;;;;;;1.50;99.90;;;;;;4941784;28;19921;-81
2021/12/25 06:25:13;;;;;;;;;;;1.50;99.90;;;;;;4932732;28;19919;-81
2021/12/25 06:27:48;;;;;;;;;;;1.50;99.90;;;;;;4978684;28;20400;-84
2021/12/25 06:30:27;;;;;;;;;;;1.50;99.90;;;;;;4990582;28;19921;-82
2021/12/25 06:32:58;;;;;;;;;;;1.50;99.90;;;;;;4955212;28;20014;-81
2021/12/25 06:35:31;;;;;;;;;;;1.50;99.90;;;;;;4962172;28;19957;-83
2021/12/25 06:38:17;;;;;;;;;;;1.50;99.90;;;;;;4948040;28;20095;-82
2021/12/25 06:41:00;;;;;;;;;;;1.50;99.90;;;;;;4971422;28;19922;-80
2021/12/25 06:43:26;;;;;;;;;;;1.50;99.90;;;;;;4978795;28;20376;-81
2021/12/25 06:45:52;;;;;;;;;;;1.40;99.90;;;;;;4976166;28;20060;-81
2021/12/25 06:48:18;;;;;;;;;;;1.40;99.90;;;;;;4944895;28;19914;-83
2021/12/25 06:51:10;;;;;;;;;;;1.30;99.90;;;;;;4975117;28;19922;-83
2021/12/25 06:54:04;;;;;;;;;;;1.40;99.90;;;;;;4985982;28;20396;-81
2021/12/25 06:56:49;;;;;;;;;;;1.30;99.90;;;;;;4970210;28;19930;-84
2021/12/25 06:59:23;;;;;;;;;;;1.30;99.90;;;;;;4952443;28;19928;-81
2021/12/25 07:01:49;;;;;;;;;;;1.30;99.90;;;;;;4935555;28;20397;-80
2021/12/25 07:04:33;;;;;;;;;;;1.30;99.90;;;;;;4959837;28;20014;-81
2021/12/25 07:07:29;;;;;;;;;;;1.30;99.90;;;;;;4955425;28;20377;-81
2021/12/25 07:10:13;;;;;;;;;;;1.20;99.90;;;;;;4963699;28;19925;-79
2021/12/25 07:13:02;;;;;;;;;;;1.20;99.90;;;;;;4957820;28;19922;-80
2021/12/25 07:15:35;;;;;;;;;;;1.10;99.90;;;;;;4939897;29;19926;-81
2021/12/25 07:18:26;;;;;;;;;;;1.10;99.90;;;;;;4948032;28;19947;-80
2021/12/25 07:21:31;;;;;;;;;;;1.20;99.90;;;;;;4935587;29;19919;-80
2021/12/25 07:24:09;;;;;;;;;;;1.20;99.90;;;;;;4914031;29;19918;-79
2021/12/25 07:26:40;;;;;;;;;;;1.20;99.90;;;;;;4955425;28;20022;-79
2021/12/25 07:29:16;;;;;;;;;;;1.10;99.90;;;;;;4965024;28;19921;-80
2021/12/25 07:31:42;;;;;;;;;;;1.10;99.90;;;;;;4953930;28;19923;-78
2021/12/25 07:34:08;;;;;;;;;;;1.10;99.90;;;;;;4973428;28;19922;-78
2021/12/25 07:36:33;;;;;;;;;;;1.10;99.90;;;;;;4957351;28;19918;-80
2021/12/25 07:39:00;;;;;;;;;;;1.10;99.90;;;;;;4959568;28;19919;-80
2021/12/25 07:41:26;;;;;;;;;;;1.10;99.90;;;;;;4958835;28;19922;-80
2021/12/25 07:43:52;;;;;;;;;;;1.00;99.90;;;;;;4977411;28;19924;-80
2021/12/25 07:46:23;;;;;;;;;;;1.10;99.90;;;;;;4968511;28;19945;-80
2021/12/25 07:48:49;;;;;;;;;;;1.10;99.90;;;;;;4989297;28;20424;-79
2021/12/25 07:51:14;;;;;;;;;;;1.00;99.90;;;;;;4958402;28;19915;-80
2021/12/25 07:53:43;;;;;;;;;;;1.00;99.90;;;;;;4985248;28;20529;-80
2021/12/25 07:56:09;;;;;;;;;;;1.10;99.90;;;;;;4971559;28;20432;-80
2021/12/25 07:58:34;;;;;;;;;;;1.10;99.90;;;;;;4949195;29;19919;-80
2021/12/25 08:01:00;;;;;;;;;;;1.10;99.90;;;;;;4953810;28;19926;-80
2021/12/25 08:03:26;;;;;;;;;;;1.00;99.90;;;;;;4964223;28;20273;-81
2021/12/25 08:05:51;;;;;;;;;;;1.00;99.90;;;;;;4976024;28;19970;-80
2021/12/25 08:08:17;;;;;;;;;;;1.00;99.90;;;;;;4974732;28;19926;-77
2021/12/25 08:10:43;;;;;;;;;;;1.00;99.90;;;;;;4973226;28;19933;-81
2021/12/25 08:13:09;;;;;;;;;;;1.00;99.90;;;;;;4985525;28;19925;-79
2021/12/25 08:15:35;;;;;;;;;;;1.00;99.90;;;;;;4956986;28;20101;-82
2021/12/25 08:18:01;;;;;;;;;;;0.90;99.90;;;;;;4971966;28;19915;-81
2021/12/25 08:20:30;;;;;;;;;;;0.90;99.90;;;;;;4960919;28;19914;-80
2021/12/25 08:23:14;;;;;;;;;;;1.00;99.90;;;;;;4952828;29;20438;-80
2021/12/25 08:25:59;;;;;;;;;;;0.90;99.90;;;;;;4970356;28;20008;-80
2021/12/25 08:28:33;;;;;;;;;;;0.90;99.90;;;;;;4979028;28;19918;-80
2021/12/25 08:31:17;;;;;;;;;;;0.90;99.90;;;;;;4973060;28;19921;-80
2021/12/25 08:34:02;;;;;;;;;;;0.90;99.90;;;;;;4963341;28;19980;-80
2021/12/25 08:36:46;;;;;;;;;;;0.90;99.90;;;;;;4960908;28;19922;-79
2021/12/25 08:39:11;;;;;;;;;;;0.90;99.90;;;;;;4961126;28;19926;-82
2021/12/25 08:41:38;;;;;;;;;;;0.90;99.90;;;;;;4969234;28;19919;-80
2021/12/25 08:44:09;;;;;;;;;;;0.90;99.90;;;;;;4947979;28;20460;-82
2021/12/25 08:46:44;;;;;;;;;;;0.90;99.90;;;;;;4949535;28;19949;-83
2021/12/25 08:49:14;;;;;;;;;;;0.90;99.90;;;;;;4964840;28;19962;-83
2021/12/25 08:51:40;;;;;;;;;;;0.90;99.90;;;;;;4943751;29;19921;-83
2021/12/25 08:54:06;;;;;;;;;;;0.90;99.90;;;;;;4949061;28;20334;-83
2021/12/25 08:56:32;;;;;;;;;;;0.90;99.90;;;;;;4950057;28;19978;-82
2021/12/25 08:59:00;;;;;;;;;;;0.90;99.90;;;;;;4960593;28;19946;-83
2021/12/25 09:01:26;;;;;;;;;;;0.90;99.90;;;;;;4950041;29;20029;-83
2021/12/25 09:03:51;;;;;;;;;;;0.90;99.90;;;;;;4935032;29;19998;-83
2021/12/25 09:06:17;;;;;;;;;;;1.00;99.90;;;;;;4941718;28;19921;-83
2021/12/25 09:08:43;;;;;;;;;;;1.00;99.90;;;;;;4976774;28;19922;-85
2021/12/25 09:11:09;;;;;;;;;;;1.00;99.90;;;;;;4965565;28;19914;-86
2021/12/25 09:13:34;;;;;;;;;;;0.90;99.90;;;;;;4966588;28;19950;-85
2021/12/25 09:16:00;;;;;;;;;;;1.00;99.90;;;;;;4930693;28;19941;-82
2021/12/25 09:18:27;;;;;;;;;;;1.00;99.90;;;;;;4953292;28;19918;-86
2021/12/25 09:21:05;;;;;;;;;;;1.00;99.90;;;;;;4983333;28;19950;-86
2021/12/25 09:23:31;;;;;;;;;;;1.00;99.90;;;;;;4952924;28;20104;-84
2021/12/25 09:25:56;;;;;;;;;;;1.00;99.90;;;;;;4954694;28;20608;-87
2021/12/25 09:28:23;;;;;;;;;;;1.10;99.90;;;;;;4960926;28;19918;-87
2021/12/25 09:30:49;;;;;;;;;;;1.10;99.90;;;;;;4965232;28;19918;-87
2021/12/25 09:33:15;;;;;;;;;;;1.10;99.90;;;;;;4961632;28;19918;-86
2021/12/25 09:35:41;;;;;;;;;;;1.10;99.90;;;;;;4948896;28;19914;-86
2021/12/25 09:38:09;;;;;;;;;;;1.00;99.90;;;;;;4950694;28;20647;-83
2021/12/25 09:40:35;;;;;;;;;;;1.10;99.90;;;;;;4974285;28;20009;-86
2021/12/25 09:43:00;;;;;;;;;;;1.10;99.90;;;;;;4972005;28;19914;-86
2021/12/25 09:45:26;;;;;;;;;;;1.10;99.90;;;;;;4964626;28;20013;-86
2021/12/25 09:47:52;;;;;;;;;;;1.10;99.90;;;;;;4971410;28;20002;-86
2021/12/25 09:50:18;;;;;;;;;;;1.10;99.90;;;;;;4967040;28;19921;-86
2021/12/25 09:52:44;;;;;;;;;;;1.10;99.90;;;;;;4957802;28;19919;-85
2021/12/25 09:55:11;;;;;;;;;;;1.10;99.90;;;;;;4932838;29;19936;-84
2021/12/25 09:57:37;;;;;;;;;;;1.10;99.90;;;;;;4945843;28;19984;-85
2021/12/25 10:00:07;;;;;;;;;;;1.10;99.90;;;;;;4968997;28;20396;-87
2021/12/25 10:02:45;;;;;;;;;;;1.00;99.90;;;;;;4975451;28;19957;-87
2021/12/25 10:05:11;;;;;;;;;;;1.10;99.90;;;;;;4969281;28;19937;-85
2021/12/25 10:07:37;;;;;;;;;;;1.10;99.90;;;;;;4967063;28;19922;-85
2021/12/25 10:10:10;;;;;;;;;;;1.10;99.90;;;;;;4956166;28;20419;-84
2021/12/25 10:12:40;;;;;;;;;;;1.10;99.90;;;;;;4950442;28;19914;-86
2021/12/25 10:15:08;;;;;;;;;;;1.10;99.90;;;;;;4971431;28;19918;-85
2021/12/25 10:17:34;;;;;;;;;;;1.00;99.90;;;;;;4970517;28;19941;-85
2021/12/25 10:20:08;;;;;;;;;;;1.10;99.90;;;;;;4941371;28;19914;-85
2021/12/25 10:22:34;;;;;;;;;;;1.10;99.90;;;;;;4948676;28;19918;-84
2021/12/25 10:25:09;;;;;;;;;;;1.10;99.90;;;;;;4950922;28;20443;-85
2021/12/25 10:27:35;;;;;;;;;;;1.10;99.90;;;;;;4975463;28;19918;-83
2021/12/25 10:30:04;;;;;;;;;;;1.10;99.90;;;;;;4975390;28;19969;-84
2021/12/25 10:32:29;;;;;;;;;;;1.10;99.90;;;;;;4963513;28;20522;-84
2021/12/25 10:34:55;;;;;;;;;;;1.10;99.90;;;;;;4947657;28;19925;-84
2021/12/25 10:37:21;;;;;;;;;;;1.10;99.90;;;;;;4947526;28;19969;-84
2021/12/25 10:39:48;;;;;;;;;;;1.10;99.90;;;;;;4956683;28;19930;-83
2021/12/25 10:42:18;;;;;;;;;;;1.10;99.90;;;;;;4940650;28;19937;-83
2021/12/25 10:44:51;;;;;;;;;;;1.10;99.90;;;;;;4954611;28;19916;-84
2021/12/25 10:47:17;;;;;;;;;;;1.20;99.90;;;;;;4942091;28;19925;-84
2021/12/25 10:49:56;;;;;;;;;;;1.20;99.90;;;;;;4962246;28;20368;-83
2021/12/25 10:52:25;;;;;;;;;;;1.20;99.90;;;;;;4962617;28;19962;-83
2021/12/25 10:54:58;;;;;;;;;;;1.20;99.90;;;;;;4981040;28;19914;-84
2021/12/25 10:57:41;;;;;;;;;;;1.20;99.90;;;;;;4960504;28;19953;-83
2021/12/25 11:00:09;;;;;;;;;;;1.20;99.90;;;;;;4962799;28;19976;-83
2021/12/25 11:02:43;;;;;;;;;;;1.20;99.90;;;;;;4955124;28;19914;-81
2021/12/25 11:05:18;;;;;;;;;;;1.20;99.90;;;;;;4955345;28;19947;-82
2021/12/25 11:07:47;;;;;;;;;;;1.20;99.90;;;;;;4948290;28;19915;-79
2021/12/25 11:10:14;;;;;;;;;;;1.20;99.90;;;;;;4953135;28;19950;-82
2021/12/25 11:12:40;;;;;;;;;;;1.20;99.90;;;;;;4967241;28;19929;-81
2021/12/25 11:15:12;;;;;;;;;;;1.20;99.90;;;;;;4975047;28;19919;-81
2021/12/25 11:17:42;;;;;;;;;;;1.20;99.90;;;;;;4959960;28;20420;-81
2021/12/25 11:20:17;;;;;;;;;;;1.20;99.90;;;;;;4956577;28;20304;-81
2021/12/25 11:22:51;;;;;;;;;;;1.20;99.90;;;;;;4970795;28;19926;-82
2021/12/25 11:25:18;;;;;;;;;;;1.20;99.90;;;;;;4956116;28;19922;-81
2021/12/25 11:27:43;;;;;;;;;;;1.20;99.90;;;;;;4966480;28;19922;-80
2021/12/25 11:30:09;;;;;;;;;;;1.20;99.90;;;;;;4935480;28;19969;-83
2021/12/25 11:32:35;;;;;;;;;;;1.20;99.90;;;;;;4958699;28;19915;-83
2021/12/25 11:35:01;;;;;;;;;;;1.20;99.90;;;;;;4969056;28;19925;-83
2021/12/25 11:37:27;;;;;;;;;;;1.20;99.90;;;;;;4966806;28;19919;-83
2021/12/25 11:39:54;;;;;;;;;;;1.20;99.90;;;;;;4964753;28;20400;-83
2021/12/25 11:42:20;;;;;;;;;;;1.20;99.90;;;;;;4950467;28;19989;-83
2021/12/25 11:44:53;;;;;;;;;;;1.20;99.90;;;;;;4953448;28;19937;-81
2021/12/25 11:47:39;;;;;;;;;;;1.20;99.90;;;;;;4971245;28;20370;-83
2021/12/25 11:50:20;;;;;;;;;;;1.20;99.90;;;;;;4948251;29;19921;-83
2021/12/25 11:53:04;;;;;;;;;;;1.10;99.90;;;;;;4943068;28;19926;-84
2021/12/25 11:58:37;;;;;;;;;;;1.10;99.90;;;;;;4978839;28;19919;-83
2021/12/25 12:01:23;;;;;;;;;;;1.10;99.90;;;;;;4976970;28;19922;-83
2021/12/25 12:03:57;;;;;;;;;;;1.10;99.90;;;;;;4947150;28;19923;-83
2021/12/25 12:06:41;;;;;;;;;;;1.10;99.90;;;;;;4965246;28;19973;-84
2021/12/25 12:09:10;;;;;;;;;;;1.10;99.90;;;;;;4956577;28;19918;-82
2021/12/25 12:12:10;;;;;;;;;;;1.10;99.90;;;;;;4951953;28;19910;-82
2021/12/25 12:15:07;;;;;;;;;;;1.10;99.90;;;;;;4967658;28;20365;-83
2021/12/25 12:17:51;;;;;;;;;;;1.10;99.90;;;;;;4957785;28;19977;-82
2021/12/25 12:20:34;;;;;;;;;;;1.10;99.90;;;;;;4932363;29;20326;-82
2021/12/25 12:23:16;;;;;;;;;;;1.10;99.90;;;;;;4965371;28;20017;-82
2021/12/25 12:25:48;;;;;;;;;;;1.10;99.90;;;;;;4942484;28;19923;-82
2021/12/25 12:28:14;;;;;;;;;;;1.20;99.90;;;;;;4935989;28;19919;-82
2021/12/25 12:30:50;;;;;;;;;;;1.20;99.90;;;;;;4947271;28;20484;-83
2021/12/25 12:33:17;;;;;;;;;;;1.10;99.90;;;;;;4947547;28;19923;-80
2021/12/25 12:35:44;;;;;;;;;;;1.10;99.90;;;;;;4941869;29;20604;-81
2021/12/25 12:38:27;;;;;;;;;;;1.10;99.90;;;;;;4952785;28;19925;-81
2021/12/25 12:41:11;;;;;;;;;;;1.10;99.90;;;;;;4959857;28;20098;-80
2021/12/25 12:43:54;;;;;;;;;;;1.10;99.90;;;;;;4970812;28;19950;-81
2021/12/25 12:46:20;;;;;;;;;;;1.10;99.90;;;;;;4978199;28;19919;-82
2021/12/25 12:49:05;;;;;;;;;;;1.10;99.90;;;;;;4931729;28;19922;-83
2021/12/25 12:51:31;;;;;;;;;;;1.10;99.90;;;;;;4954300;28;19969;-80
2021/12/25 12:53:57;;;;;;;;;;;1.00;99.90;;;;;;4953082;28;19923;-80
2021/12/25 12:56:23;;;;;;;;;;;1.00;99.90;;;;;;4962954;28;19921;-80
2021/12/25 12:58:52;;;;;;;;;;;1.00;99.90;;;;;;4955909;28;19946;-80
2021/12/25 13:01:19;;;;;;;;;;;1.00;99.90;;;;;;4933931;29;19925;-80
2021/12/25 13:03:44;;;;;;;;;;;0.90;99.90;;;;;;4952138;28;19922;-80
2021/12/25 13:06:11;;;;;;;;;;;0.90;99.90;;;;;;4942503;28;20062;-80
2021/12/25 13:08:38;;;;;;;;;;;0.90;99.90;;;;;;4949358;28;20437;-81
2021/12/25 13:11:42;;;;;;;;;;;0.90;99.90;;;;;;4954529;28;19926;-80
2021/12/25 13:14:04;;;;;;;;;;;0.90;99.90;;;;;;4970487;28;19980;-80
2021/12/25 13:16:34;;;;;;;;;;;0.90;99.90;;;;;;4948218;28;19925;-81
2021/12/25 13:19:03;;;;;;;;;;;0.80;99.90;;;;;;4952735;28;19919;-81
2021/12/25 13:21:29;;;;;;;;;;;0.90;99.90;;;;;;4958141;28;19914;-81
2021/12/25 13:23:57;;;;;;;;;;;0.80;99.90;;;;;;4972019;28;19966;-81
2021/12/25 13:26:31;;;;;;;;;;;0.80;99.90;;;;;;4951945;28;20304;-81
2021/12/25 13:28:57;;;;;;;;;;;0.70;99.90;;;;;;4952269;28;20371;-81
2021/12/25 13:31:24;;;;;;;;;;;0.70;99.90;;;;;;4956341;28;20290;-81
2021/12/25 13:33:51;;;;;;;;;;;0.70;99.90;;;;;;4970227;28;19926;-80
2021/12/25 13:36:21;;;;;;;;;;;0.70;99.90;;;;;;4974159;28;19918;-80
2021/12/25 13:38:58;;;;;;;;;;;0.70;99.90;;;;;;4956717;28;20009;-80
2021/12/25 13:41:35;;;;;;;;;;;0.70;99.90;;;;;;4960741;28;19922;-80
2021/12/25 13:44:12;;;;;;;;;;;0.70;99.90;;;;;;4949508;28;20441;-80
2021/12/25 13:46:48;;;;;;;;;;;0.80;99.90;;;;;;4976114;28;19922;-80
2021/12/25 13:49:44;;;;;;;;;;;0.70;99.90;;;;;;4981049;28;19926;-81
2021/12/25 13:52:21;;;;;;;;;;;0.80;99.90;;;;;;4954544;28;19965;-81
2021/12/25 13:55:07;;;;;;;;;;;0.80;99.90;;;;;;4976084;28;19918;-81
2021/12/25 13:57:34;;;;;;;;;;;0.70;99.90;;;;;;4974238;28;19925;-80
2021/12/25 14:00:20;;;;;;;;;;;0.70;99.90;;;;;;4935187;29;19953;-81
2021/12/25 14:02:47;;;;;;;;;;;0.70;99.90;;;;;;4933474;29;19915;-81
2021/12/25 14:05:14;;;;;;;;;;;0.70;99.90;;;;;;4953429;28;19914;-81
2021/12/25 14:07:40;;;;;;;;;;;0.60;99.90;;;;;;4954828;28;19922;-81
2021/12/25 14:10:09;;;;;;;;;;;0.60;99.90;;;;;;4940678;28;19914;-80
2021/12/25 14:12:35;;;;;;;;;;;0.60;99.90;;;;;;4979652;28;19915;-81
2021/12/25 14:15:03;;;;;;;;;;;0.70;99.90;;;;;;4953206;28;19919;-79
2021/12/25 14:17:28;;;;;;;;;;;0.60;99.90;;;;;;4935660;29;19919;-80
2021/12/25 14:20:14;;;;;;;;;;;0.60;99.90;;;;;;4951577;29;19910;-80
2021/12/25 14:22:41;;;;;;;;;;;0.60;99.90;;;;;;4951650;28;20023;-81
2021/12/25 14:25:07;;;;;;;;;;;0.50;99.90;;;;;;4972168;28;19925;-80
2021/12/25 14:27:32;;;;;;;;;;;0.50;99.90;;;;;;4967347;28;19973;-81
2021/12/25 14:30:11;;;;;;;;;;;0.50;99.90;;;;;;4967299;28;19919;-81
2021/12/25 14:32:36;;;;;;;;;;;0.50;99.90;;;;;;4937904;29;20356;-81
2021/12/25 14:35:12;;;;;;;;;;;0.50;99.90;;;;;;4938353;28;20015;-81
2021/12/25 14:37:38;;;;;;;;;;;0.50;99.90;;;;;;4959912;28;19915;-80
2021/12/25 14:40:12;;;;;;;;;;;0.50;99.90;;;;;;4955661;28;20404;-81
2021/12/25 14:42:39;;;;;;;;;;;0.40;99.90;;;;;;4981249;28;19918;-81
2021/12/25 14:45:05;;;;;;;;;;;0.50;99.90;;;;;;4955603;28;20060;-80
2021/12/25 14:47:31;;;;;;;;;;;0.50;99.90;;;;;;4985904;28;19921;-81
2021/12/25 14:49:56;;;;;;;;;;;0.40;99.90;;;;;;4972912;28;19914;-80
2021/12/25 14:52:22;;;;;;;;;;;0.40;99.90;;;;;;4978874;28;19922;-80
2021/12/25 14:54:48;;;;;;;;;;;0.40;99.90;;;;;;4966675;28;19954;-81
2021/12/25 14:57:27;;;;;;;;;;;0.40;99.90;;;;;;4954256;28;19965;-81
2021/12/25 14:59:53;;;;;;;;;;;0.40;99.90;;;;;;4962835;28;20009;-80
2021/12/25 15:02:20;;;;;;;;;;;0.40;99.90;;;;;;4956058;28;20349;-79
2021/12/25 15:04:47;;;;;;;;;;;0.40;99.90;;;;;;4964904;28;19972;-80
2021/12/25 15:07:13;;;;;;;;;;;0.40;99.90;;;;;;4983242;28;19918;-80
2021/12/25 15:09:42;;;;;;;;;;;0.40;99.90;;;;;;4976282;28;19918;-79
2021/12/25 15:12:12;;;;;;;;;;;0.40;99.90;;;;;;4977610;28;20008;-80
2021/12/25 15:14:40;;;;;;;;;;;0.30;99.90;;;;;;4952626;28;19962;-79
2021/12/25 15:17:10;;;;;;;;;;;0.30;99.90;;;;;;4950167;28;20492;-81
2021/12/25 15:19:40;;;;;;;;;;;0.30;99.90;;;;;;4948584;28;19918;-81
2021/12/25 15:22:08;;;;;;;;;;;0.30;99.90;;;;;;4940565;28;19962;-81
2021/12/25 15:24:33;;;;;;;;;;;0.30;99.90;;;;;;4980139;28;19915;-81
2021/12/25 15:27:00;;;;;;;;;;;0.30;99.90;;;;;;4942561;28;19923;-82
2021/12/25 15:29:32;;;;;;;;;;;0.30;99.90;;;;;;4984262;28;20392;-79
2021/12/25 15:32:02;;;;;;;;;;;0.40;99.90;;;;;;4959060;28;20403;-79
2021/12/25 15:34:27;;;;;;;;;;;0.30;99.90;;;;;;4959964;28;19925;-81
2021/12/25 15:36:53;;;;;;;;;;;0.30;99.90;;;;;;4972925;28;20355;-81
2021/12/25 15:39:20;;;;;;;;;;;0.30;99.90;;;;;;4955956;28;19918;-81
2021/12/25 15:41:47;;;;;;;;;;;0.30;99.90;;;;;;4966413;28;19919;-80
2021/12/25 15:44:13;;;;;;;;;;;0.30;99.90;;;;;;4957934;28;19922;-81
2021/12/25 15:46:39;;;;;;;;;;;0.30;99.90;;;;;;4974154;28;19918;-80
2021/12/25 15:49:04;;;;;;;;;;;0.30;99.90;;;;;;4975977;28;20340;-79
2021/12/25 15:51:30;;;;;;;;;;;0.30;99.90;;;;;;4950448;28;19922;-80
2021/12/25 15:53:56;;;;;;;;;;;0.30;99.90;;;;;;4959429;28;20056;-80
2021/12/25 15:56:24;;;;;;;;;;;0.30;99.90;;;;;;4971747;28;19964;-81
2021/12/25 15:58:50;;;;;;;;;;;0.20;99.90;;;;;;4970652;28;19919;-80
2021/12/25 16:01:16;;;;;;;;;;;0.20;99.90;;;;;;4977252;28;20050;-81
2021/12/25 16:03:43;;;;;;;;;;;0.20;99.90;;;;;;4954118;28;20054;-79
2021/12/25 16:06:08;;;;;;;;;;;0.20;99.90;;;;;;4975480;28;19914;-81
2021/12/25 16:08:34;;;;;;;;;;;0.20;99.90;;;;;;4968814;28;19919;-82
2021/12/25 16:10:59;;;;;;;;;;;0.20;99.90;;;;;;4953616;28;19925;-80
2021/12/25 16:13:25;;;;;;;;;;;0.20;99.90;;;;;;4952788;28;19922;-80
2021/12/25 16:15:53;;;;;;;;;;;0.20;99.90;;;;;;4972012;28;19953;-81
2021/12/25 16:18:18;;;;;;;;;;;0.20;99.90;;;;;;4953813;28;19919;-78